Time;durP1;ratioP1;P1;durP2;ratioP2;P2;SDS_P1;SDS_P2;PMS_P1;PMS_P2;Temp;Humidity;BMP_temperature;BMP_pressure;BME280_temperature;BME280_humidity;BME280_pressure;Samples;Min_cycle;Max_cycle;Signal;HPM_P1;HPM_P2
2022/10/09 05:00:21;;;;;;;4.67;4.20;;;11.40;97.20;;;;;;1713830;28;20178;-70
2022/10/09 05:01:14;;;;;;;4.50;4.10;;;11.40;97.20;;;;;;1713858;28;20206;-70
2022/10/09 05:02:05;;;;;;;4.30;3.90;;;11.40;97.20;;;;;;1713807;28;20264;-70
2022/10/09 05:02:56;;;;;;;8.40;3.95;;;11.40;97.20;;;;;;1713778;28;20209;-70
2022/10/09 05:03:48;;;;;;;4.70;3.70;;;11.40;97.20;;;;;;1713560;28;20204;-70
2022/10/09 05:04:39;;;;;;;5.07;4.57;;;11.40;97.20;;;;;;1713789;28;20264;-70
2022/10/09 05:05:32;;;;;;;4.60;4.13;;;11.40;97.20;;;;;;1713873;28;20198;-70
2022/10/09 05:06:23;;;;;;;4.78;4.20;;;11.40;97.20;;;;;;1713748;28;20581;-70
2022/10/09 05:07:15;;;;;;;6.60;4.40;;;11.40;97.20;;;;;;1713818;28;20202;-70
2022/10/09 05:08:06;;;;;;;13.88;4.30;;;11.40;97.20;;;;;;1713806;28;20213;-70
2022/10/09 05:08:58;;;;;;;6.53;4.40;;;11.40;97.20;;;;;;1713836;28;20205;-70
2022/10/09 05:09:48;;;;;;;4.97;4.47;;;11.40;97.20;;;;;;1713753;28;20711;-70
2022/10/09 05:10:40;;;;;;;4.23;3.73;;;11.40;97.20;;;;;;1713862;28;20579;-70
2022/10/09 05:11:31;;;;;;;5.05;3.63;;;11.40;97.20;;;;;;1713805;28;20233;-70
2022/10/09 05:12:22;;;;;;;5.97;3.90;;;11.40;97.20;;;;;;1713911;28;20205;-70
2022/10/09 05:13:13;;;;;;;4.13;3.72;;;11.30;97.20;;;;;;1713789;28;20687;-70
2022/10/09 05:14:05;;;;;;;7.73;4.20;;;11.30;97.20;;;;;;1713587;28;20578;-70
2022/10/09 05:14:56;;;;;;;7.03;4.45;;;11.40;97.20;;;;;;1713748;28;20718;-70
2022/10/09 05:15:49;;;;;;;6.70;4.17;;;11.40;97.20;;;;;;1713767;28;20561;-70
2022/10/09 05:16:39;;;;;;;5.18;4.13;;;11.30;97.20;;;;;;1713631;28;20202;-70
2022/10/09 05:17:31;;;;;;;4.67;4.17;;;11.30;97.20;;;;;;1713902;28;20190;-70
2022/10/09 05:18:22;;;;;;;4.57;4.10;;;11.30;97.20;;;;;;1713691;28;20254;-70
2022/10/09 05:19:13;;;;;;;5.77;3.80;;;11.30;97.20;;;;;;1713866;28;20205;-70
2022/10/09 05:20:05;;;;;;;6.00;4.35;;;11.30;97.20;;;;;;1712978;28;20225;-70
2022/10/09 05:20:57;;;;;;;6.75;3.70;;;11.30;97.20;;;;;;1706932;28;20692;-70
2022/10/09 05:21:48;;;;;;;8.13;3.78;;;11.30;97.20;;;;;;1707235;29;20199;-70
2022/10/09 05:22:39;;;;;;;6.30;4.10;;;11.30;97.20;;;;;;1711593;28;20197;-70
2022/10/09 05:23:31;;;;;;;5.97;4.05;;;11.30;97.20;;;;;;1713664;28;20205;-70
2022/10/09 05:24:23;;;;;;;6.72;5.18;;;11.30;97.20;;;;;;1713159;28;20237;-70
2022/10/09 05:25:14;;;;;;;4.72;4.32;;;11.30;97.20;;;;;;1713609;28;20229;-70
2022/10/09 05:26:07;;;;;;;4.70;4.10;;;11.30;97.20;;;;;;1713784;28;20205;-70
2022/10/09 05:26:58;;;;;;;4.38;3.42;;;11.30;97.20;;;;;;1713665;28;20236;-70
2022/10/09 05:27:50;;;;;;;7.43;3.93;;;11.20;97.20;;;;;;1713857;28;20190;-70
2022/10/09 05:28:41;;;;;;;4.32;3.85;;;11.20;97.20;;;;;;1713746;28;20201;-70
2022/10/09 05:29:32;;;;;;;5.20;4.17;;;11.20;97.20;;;;;;1713843;28;20200;-70
2022/10/09 05:30:23;;;;;;;4.15;3.75;;;11.20;97.20;;;;;;1713033;28;20456;-70
2022/10/09 05:31:17;;;;;;;4.33;3.90;;;11.20;97.20;;;;;;1713933;28;20750;-70
2022/10/09 05:32:09;;;;;;;6.13;4.20;;;11.20;97.20;;;;;;1713820;28;20344;-70
2022/10/09 05:33:00;;;;;;;5.55;3.90;;;11.20;97.20;;;;;;1713816;28;20696;-70
2022/10/09 05:33:52;;;;;;;4.87;4.43;;;11.20;97.20;;;;;;1713542;28;20648;-70
2022/10/09 05:34:43;;;;;;;5.70;3.60;;;11.20;97.20;;;;;;1708656;28;20214;-70
2022/10/09 05:35:34;;;;;;;4.90;4.10;;;11.20;97.20;;;;;;1707110;28;20203;-70
2022/10/09 05:36:25;;;;;;;6.30;4.25;;;11.20;97.20;;;;;;1708250;29;20206;-70
2022/10/09 05:37:17;;;;;;;4.53;3.80;;;11.20;97.20;;;;;;1708246;29;20198;-70
2022/10/09 05:38:08;;;;;;;7.22;3.95;;;11.20;97.20;;;;;;1708243;29;20562;-70
2022/10/09 05:39:00;;;;;;;5.80;4.10;;;11.20;97.20;;;;;;1708197;29;20221;-70
2022/10/09 05:39:51;;;;;;;4.55;4.15;;;11.20;97.20;;;;;;1708141;29;20388;-70
2022/10/09 05:40:50;;;;;;;5.03;4.13;;;11.20;97.20;;;;;;1708152;29;20223;-70
2022/10/09 05:41:42;;;;;;;5.20;4.70;;;11.10;97.20;;;;;;1708270;29;20202;-69
2022/10/09 05:42:33;;;;;;;5.20;3.45;;;11.20;97.20;;;;;;1708918;28;20207;-69
2022/10/09 05:43:25;;;;;;;5.77;4.43;;;11.10;97.20;;;;;;1711012;28;20198;-69
2022/10/09 05:44:16;;;;;;;4.53;4.13;;;11.10;97.20;;;;;;1707911;29;20217;-70
2022/10/09 05:45:10;;;;;;;6.50;4.00;;;11.10;97.20;;;;;;1708220;28;20293;-70
2022/10/09 05:46:05;;;;;;;4.70;4.30;;;11.10;97.20;;;;;;1708161;28;20215;-69
2022/10/09 05:46:58;;;;;;;8.57;4.43;;;11.10;97.20;;;;;;1708142;29;20285;-70
2022/10/09 05:47:49;;;;;;;4.18;3.65;;;11.10;97.20;;;;;;1708281;28;20203;-70
2022/10/09 05:48:43;;;;;;;5.83;3.80;;;11.10;97.20;;;;;;1708220;28;20281;-69
2022/10/09 05:49:34;;;;;;;4.75;3.95;;;11.10;97.20;;;;;;1708229;29;20206;-69
2022/10/09 05:50:26;;;;;;;6.07;3.97;;;11.10;97.20;;;;;;1708349;28;20228;-69
2022/10/09 05:51:19;;;;;;;6.25;4.38;;;11.10;97.20;;;;;;1708140;28;20592;-69
2022/10/09 05:52:10;;;;;;;4.82;3.95;;;11.00;97.20;;;;;;1708219;29;20207;-69
2022/10/09 05:53:01;;;;;;;5.05;4.20;;;11.00;97.20;;;;;;1708101;28;20230;-70
2022/10/09 05:53:53;;;;;;;5.60;3.97;;;11.00;97.20;;;;;;1707883;29;20229;-70
2022/10/09 05:54:44;;;;;;;4.78;4.05;;;11.00;97.20;;;;;;1708208;29;20206;-72
2022/10/09 05:55:36;;;;;;;8.30;4.50;;;11.00;97.20;;;;;;1708172;29;20205;-70
2022/10/09 05:56:28;;;;;;;6.50;4.10;;;11.00;97.20;;;;;;1708188;29;20199;-70
2022/10/09 05:57:20;;;;;;;4.57;4.18;;;11.00;97.20;;;;;;1708166;29;20212;-71
2022/10/09 05:58:11;;;;;;;4.20;3.80;;;11.00;97.20;;;;;;1708201;29;20673;-71
2022/10/09 05:59:04;;;;;;;5.30;4.43;;;11.00;97.20;;;;;;1711812;28;20560;-71
2022/10/09 05:59:55;;;;;;;4.60;4.15;;;11.00;97.20;;;;;;1714409;28;20218;-71
2022/10/09 06:00:47;;;;;;;4.83;4.40;;;11.00;97.20;;;;;;1714437;28;20228;-71
2022/10/09 06:01:39;;;;;;;5.30;4.28;;;11.00;97.20;;;;;;1714278;28;20803;-71
2022/10/09 06:02:32;;;;;;;3.97;3.65;;;11.00;97.20;;;;;;1713587;28;20212;-71
2022/10/09 06:03:23;;;;;;;4.25;3.72;;;11.00;97.20;;;;;;1714421;28;20210;-72
2022/10/09 06:04:17;;;;;;;8.03;4.47;;;11.00;97.20;;;;;;1714376;28;20197;-70
2022/10/09 06:05:08;;;;;;;5.00;4.00;;;11.00;97.20;;;;;;1708518;28;20457;-71
2022/10/09 06:06:01;;;;;;;6.75;4.25;;;11.00;97.20;;;;;;1707802;28;20199;-70
2022/10/09 06:06:52;;;;;;;5.68;4.40;;;11.00;97.20;;;;;;1709673;28;20277;-70
2022/10/09 06:07:43;;;;;;;4.47;4.07;;;11.00;97.20;;;;;;1714369;28;20275;-70
2022/10/09 06:08:35;;;;;;;5.35;4.00;;;11.00;97.20;;;;;;1714404;28;20441;-70
2022/10/09 06:09:27;;;;;;;4.78;4.28;;;11.00;97.20;;;;;;1714440;28;20205;-70
2022/10/09 06:10:18;;;;;;;4.30;3.90;;;11.00;97.20;;;;;;1714386;28;20213;-70
2022/10/09 06:11:11;;;;;;;4.50;3.93;;;11.00;97.20;;;;;;1714623;28;20297;-71
2022/10/09 06:12:02;;;;;;;4.60;4.20;;;11.00;97.20;;;;;;1714322;28;20218;-70
2022/10/09 06:12:54;;;;;;;7.00;4.60;;;11.00;97.20;;;;;;1713342;28;20214;-70
2022/10/09 06:13:45;;;;;;;6.80;4.20;;;11.00;97.20;;;;;;1713783;28;20448;-70
2022/10/09 06:14:37;;;;;;;4.93;4.38;;;11.00;97.20;;;;;;1714000;28;20229;-70
2022/10/09 06:15:27;;;;;;;4.95;4.18;;;11.00;97.20;;;;;;1714002;28;20206;-70
2022/10/09 06:16:19;;;;;;;6.70;4.33;;;11.00;97.20;;;;;;1714053;28;20201;-70
2022/10/09 06:17:10;;;;;;;4.40;4.00;;;11.10;97.20;;;;;;1713837;28;20202;-70
2022/10/09 06:18:03;;;;;;;4.70;4.20;;;11.10;97.20;;;;;;1714688;28;20201;-70
2022/10/09 06:18:55;;;;;;;5.03;4.50;;;11.10;97.20;;;;;;1714706;28;20558;-70
2022/10/09 06:19:46;;;;;;;6.55;3.97;;;11.10;97.20;;;;;;1714670;28;20201;-70
2022/10/09 06:20:37;;;;;;;5.35;4.40;;;11.10;97.20;;;;;;1714510;28;20662;-70
2022/10/09 06:21:29;;;;;;;4.67;4.17;;;11.10;97.20;;;;;;1714713;28;20197;-70
2022/10/09 06:22:19;;;;;;;5.43;4.00;;;11.10;97.20;;;;;;1714358;28;20691;-70
2022/10/09 06:23:11;;;;;;;5.30;4.57;;;11.10;97.20;;;;;;1711582;28;20674;-70
2022/10/09 06:24:04;;;;;;;5.00;4.10;;;11.10;97.20;;;;;;1714315;28;20687;-70
2022/10/09 06:24:55;;;;;;;5.40;3.95;;;11.10;97.20;;;;;;1714561;28;20254;-70
2022/10/09 06:25:51;;;;;;;4.30;3.90;;;11.20;97.20;;;;;;1714629;28;20210;-71
2022/10/09 06:26:42;;;;;;;5.28;4.75;;;11.20;97.20;;;;;;1714536;28;20220;-70
2022/10/09 06:27:33;;;;;;;6.65;4.70;;;11.20;97.20;;;;;;1714616;28;20197;-71
2022/10/09 06:28:25;;;;;;;5.93;4.73;;;11.20;97.20;;;;;;1714665;28;20204;-70
2022/10/09 06:29:17;;;;;;;5.20;3.95;;;11.20;97.20;;;;;;1714601;28;20656;-70
2022/10/09 06:30:08;;;;;;;6.03;4.18;;;11.30;97.20;;;;;;1714676;28;20205;-70
2022/10/09 06:31:02;;;;;;;6.05;4.50;;;11.30;97.20;;;;;;1714440;28;20233;-70
2022/10/09 06:31:53;;;;;;;7.25;4.55;;;11.30;97.20;;;;;;1714719;28;20749;-70
2022/10/09 06:32:44;;;;;;;4.83;4.43;;;11.30;97.20;;;;;;1711976;28;20726;-71
2022/10/09 06:33:38;;;;;;;6.07;4.43;;;11.30;97.20;;;;;;1707901;29;20644;-71
2022/10/09 06:34:30;;;;;;;5.43;4.47;;;11.40;97.20;;;;;;1709103;28;20226;-71
2022/10/09 06:35:20;;;;;;;6.93;4.88;;;11.40;97.20;;;;;;1714436;28;20228;-71
2022/10/09 06:36:14;;;;;;;4.63;4.23;;;11.40;97.20;;;;;;1711502;28;20203;-71
2022/10/09 06:37:05;;;;;;;5.38;4.57;;;11.40;97.20;;;;;;1707789;29;20213;-71
2022/10/09 06:37:56;;;;;;;7.23;4.07;;;11.50;97.20;;;;;;1707856;29;20680;-71
2022/10/09 06:38:47;;;;;;;7.43;4.68;;;11.50;97.20;;;;;;1707886;29;20236;-71
2022/10/09 06:39:39;;;;;;;6.15;4.80;;;11.50;97.20;;;;;;1707925;29;20203;-71
2022/10/09 06:40:32;;;;;;;4.90;4.40;;;11.60;97.20;;;;;;1712737;28;20252;-71
2022/10/09 06:41:26;;;;;;;4.97;4.32;;;11.60;97.20;;;;;;1713441;28;20194;-70
2022/10/09 06:42:17;;;;;;;5.30;4.38;;;11.60;97.20;;;;;;1707653;29;20205;-71
2022/10/09 06:43:08;;;;;;;5.27;4.77;;;11.70;97.20;;;;;;1708104;28;20206;-70
2022/10/09 06:44:01;;;;;;;6.35;4.55;;;11.70;97.20;;;;;;1707504;29;20210;-70
2022/10/09 06:44:52;;;;;;;4.53;4.03;;;11.70;97.20;;;;;;1707927;29;20676;-70
2022/10/09 06:45:43;;;;;;;7.57;4.95;;;11.70;97.20;;;;;;1707767;29;20207;-69
2022/10/09 06:46:37;;;;;;;6.83;4.90;;;11.80;97.20;;;;;;1707815;28;20213;-70
2022/10/09 06:47:28;;;;;;;5.60;5.10;;;11.80;97.20;;;;;;1707300;29;20222;-70
2022/10/09 06:48:20;;;;;;;5.20;4.70;;;11.80;97.20;;;;;;1707849;29;20207;-70
2022/10/09 06:49:12;;;;;;;5.30;4.80;;;11.90;97.20;;;;;;1707857;29;20202;-70
2022/10/09 06:50:04;;;;;;;4.90;4.38;;;11.90;97.20;;;;;;1707727;29;20207;-71
2022/10/09 06:50:59;;;;;;;6.40;4.60;;;11.90;97.20;;;;;;1707871;28;20226;-70
2022/10/09 06:51:50;;;;;;;5.30;4.80;;;12.00;97.20;;;;;;1707852;29;20213;-69
2022/10/09 06:52:41;;;;;;;6.70;5.00;;;12.00;97.20;;;;;;1707861;29;20250;-70
2022/10/09 06:53:34;;;;;;;7.23;5.03;;;12.10;97.20;;;;;;1709828;28;20193;-70
2022/10/09 06:54:25;;;;;;;5.90;5.30;;;12.10;97.20;;;;;;1710193;28;20543;-70
2022/10/09 06:55:16;;;;;;;6.95;4.80;;;12.20;97.20;;;;;;1707685;29;20213;-70
2022/10/09 06:56:09;;;;;;;5.07;4.57;;;12.20;97.20;;;;;;1707799;29;20203;-70
2022/10/09 06:57:00;;;;;;;9.82;5.00;;;12.20;97.20;;;;;;1707822;29;20815;-69
2022/10/09 06:57:51;;;;;;;5.77;5.13;;;12.30;97.20;;;;;;1707771;29;20190;-69
2022/10/09 06:58:43;;;;;;;6.45;4.95;;;12.30;97.20;;;;;;1708582;28;20214;-70
2022/10/09 06:59:34;;;;;;;5.97;5.15;;;12.40;97.20;;;;;;1710686;28;20205;-73
2022/10/09 07:00:25;;;;;;;7.60;5.35;;;12.40;97.20;;;;;;1708294;28;20218;-70
2022/10/09 07:01:19;;;;;;;5.97;5.00;;;12.50;97.20;;;;;;1708583;28;20202;-70
2022/10/09 07:02:10;;;;;;;7.72;4.70;;;12.50;97.20;;;;;;1709618;28;20450;-70
2022/10/09 07:03:02;;;;;;;8.00;4.57;;;12.60;97.20;;;;;;1714354;28;20678;-70
2022/10/09 07:03:55;;;;;;;7.78;4.70;;;12.60;97.20;;;;;;1712928;28;20213;-70
2022/10/09 07:04:48;;;;;;;8.27;4.68;;;12.60;97.20;;;;;;1714283;28;20220;-73
2022/10/09 07:05:39;;;;;;;8.23;4.60;;;12.70;97.20;;;;;;1714254;28;20202;-70
2022/10/09 07:06:31;;;;;;;5.33;4.30;;;12.70;97.20;;;;;;1714318;28;20208;-70
2022/10/09 07:07:22;;;;;;;7.88;4.95;;;12.70;97.20;;;;;;1714360;28;20305;-69
2022/10/09 07:08:14;;;;;;;7.20;5.10;;;12.80;97.20;;;;;;1714192;28;20205;-69
2022/10/09 07:09:06;;;;;;;5.35;4.80;;;12.80;97.20;;;;;;1713616;28;20206;-69
2022/10/09 07:09:58;;;;;;;5.45;4.78;;;12.90;97.20;;;;;;1714122;28;20201;-70
2022/10/09 07:10:49;;;;;;;8.73;5.50;;;12.90;97.20;;;;;;1714199;28;20217;-70
2022/10/09 07:11:43;;;;;;;5.73;5.00;;;12.90;97.20;;;;;;1714319;28;20202;-70
2022/10/09 07:12:34;;;;;;;6.32;5.20;;;12.90;97.20;;;;;;1714333;28;20222;-70
2022/10/09 07:13:25;;;;;;;5.65;4.85;;;13.00;97.20;;;;;;1714396;28;20660;-70
2022/10/09 07:14:17;;;;;;;5.07;4.07;;;13.00;97.20;;;;;;1712941;28;20206;-70
2022/10/09 07:15:09;;;;;;;8.52;5.15;;;13.00;97.20;;;;;;1713513;28;20204;-70
2022/10/09 07:16:00;;;;;;;6.55;5.25;;;13.10;97.20;;;;;;1713694;28;20241;-70
2022/10/09 07:16:52;;;;;;;6.43;4.93;;;13.10;97.20;;;;;;1714260;28;20198;-70
2022/10/09 07:17:44;;;;;;;7.80;5.10;;;13.10;97.20;;;;;;1714328;28;20240;-70
2022/10/09 07:18:36;;;;;;;7.28;4.68;;;13.20;97.20;;;;;;1714306;28;20205;-70
2022/10/09 07:19:27;;;;;;;7.05;4.95;;;13.20;97.20;;;;;;1714301;28;20228;-70
2022/10/09 07:20:20;;;;;;;5.93;4.83;;;13.20;97.20;;;;;;1714108;28;20206;-70
2022/10/09 07:21:11;;;;;;;7.43;4.63;;;13.30;97.20;;;;;;1714150;28;20209;-70
2022/10/09 07:22:02;;;;;;;8.13;4.93;;;13.30;97.20;;;;;;1714284;28;20202;-71
2022/10/09 07:22:53;;;;;;;6.10;4.70;;;13.40;97.20;;;;;;1714238;28;20233;-71
2022/10/09 07:23:45;;;;;;;8.07;4.70;;;13.40;97.20;;;;;;1713974;28;20205;-71
2022/10/09 07:24:36;;;;;;;4.95;4.45;;;13.40;97.20;;;;;;1714174;28;20245;-71
2022/10/09 07:25:28;;;;;;;6.27;4.40;;;13.50;97.20;;;;;;1714177;28;20205;-71
2022/10/09 07:26:21;;;;;;;5.30;4.80;;;13.50;97.20;;;;;;1714237;28;20216;-71
2022/10/09 07:27:12;;;;;;;6.35;4.95;;;13.50;97.20;;;;;;1714302;28;20202;-71
2022/10/09 07:28:03;;;;;;;7.10;5.25;;;13.60;97.20;;;;;;1712114;28;20206;-71
2022/10/09 07:28:56;;;;;;;11.60;5.50;;;13.60;97.20;;;;;;1707649;29;20210;-71
2022/10/09 07:29:46;;;;;;;6.35;4.78;;;13.70;97.20;;;;;;1707536;29;20198;-71
2022/10/09 07:30:38;;;;;;;6.33;5.00;;;13.70;97.20;;;;;;1707428;29;20218;-71
2022/10/09 07:31:29;;;;;;;6.05;4.78;;;13.70;97.20;;;;;;1707622;29;20486;-71
2022/10/09 07:32:21;;;;;;;9.03;4.90;;;13.80;97.20;;;;;;1707594;29;20210;-71
2022/10/09 07:33:11;;;;;;;5.63;4.18;;;13.80;97.20;;;;;;1707552;29;20214;-71
2022/10/09 07:34:05;;;;;;;5.63;4.80;;;13.80;97.20;;;;;;1707200;29;20202;-71
2022/10/09 07:34:55;;;;;;;5.70;4.43;;;13.90;97.20;;;;;;1707536;29;20210;-71
2022/10/09 07:35:54;;;;;;;9.33;5.43;;;14.00;97.20;;;;;;1707490;29;20281;-71
2022/10/09 07:36:45;;;;;;;9.60;5.40;;;14.00;97.20;;;;;;1707522;29;20207;-71
2022/10/09 07:37:36;;;;;;;5.60;5.10;;;14.00;97.20;;;;;;1707519;29;20203;-71
2022/10/09 07:38:28;;;;;;;6.05;5.35;;;14.10;97.20;;;;;;1707412;29;20198;-71
2022/10/09 07:39:19;;;;;;;10.95;4.70;;;14.10;97.20;;;;;;1707506;29;20567;-71
2022/10/09 07:40:10;;;;;;;8.02;4.32;;;14.10;97.20;;;;;;1707460;29;20202;-71
2022/10/09 07:41:03;;;;;;;8.37;4.70;;;14.20;97.20;;;;;;1707462;29;20234;-71
2022/10/09 07:41:54;;;;;;;5.63;5.05;;;14.20;97.20;;;;;;1707438;29;20210;-71
2022/10/09 07:42:46;;;;;;;5.20;4.70;;;14.20;97.20;;;;;;1707452;28;20220;-71
2022/10/09 07:43:38;;;;;;;5.45;4.90;;;14.20;97.20;;;;;;1707407;29;20202;-70
2022/10/09 07:44:30;;;;;;;7.20;4.63;;;14.20;97.20;;;;;;1708424;28;20198;-70
2022/10/09 07:45:20;;;;;;;7.07;4.70;;;14.20;97.20;;;;;;1707406;29;20206;-70
2022/10/09 07:46:14;;;;;;;5.17;4.67;;;14.30;97.20;;;;;;1707421;29;20202;-70
2022/10/09 07:47:05;;;;;;;6.85;4.72;;;14.30;97.20;;;;;;1707431;29;20202;-70
2022/10/09 07:47:57;;;;;;;5.93;4.88;;;14.30;97.20;;;;;;1707495;29;20206;-70
2022/10/09 07:48:48;;;;;;;8.80;5.10;;;14.30;97.20;;;;;;1707498;29;20614;-70
2022/10/09 07:49:39;;;;;;;7.93;4.77;;;14.30;97.20;;;;;;1707412;29;20586;-71
2022/10/09 07:50:30;;;;;;;6.63;4.95;;;14.30;97.20;;;;;;1710465;28;20473;-71
2022/10/09 07:51:25;;;;;;;6.27;4.70;;;14.30;97.20;;;;;;1714195;28;20201;-71
2022/10/09 07:52:15;;;;;;;6.53;5.20;;;14.30;97.20;;;;;;1714135;28;20221;-71
2022/10/09 07:53:07;;;;;;;6.17;5.00;;;14.40;97.20;;;;;;1714058;28;20208;-71
2022/10/09 07:53:59;;;;;;;8.65;4.85;;;14.40;97.20;;;;;;1713838;28;20205;-71
2022/10/09 07:54:50;;;;;;;6.50;5.20;;;14.40;97.20;;;;;;1714037;28;20206;-71
2022/10/09 07:55:44;;;;;;;8.32;4.70;;;14.50;97.20;;;;;;1713911;28;20201;-71
2022/10/09 07:56:37;;;;;;;6.25;4.55;;;14.50;97.20;;;;;;1714119;28;20229;-71
2022/10/09 07:57:28;;;;;;;7.47;4.90;;;14.50;97.20;;;;;;1714055;28;20733;-71
2022/10/09 07:58:19;;;;;;;5.43;4.10;;;14.60;97.20;;;;;;1713851;28;20734;-71
2022/10/09 07:59:12;;;;;;;8.05;4.25;;;14.60;97.20;;;;;;1713849;28;20209;-71
2022/10/09 08:00:06;;;;;;;6.95;5.57;;;14.70;97.20;;;;;;1714055;28;20202;-71
2022/10/09 08:01:02;;;;;;;7.72;5.18;;;14.70;97.20;;;;;;1712169;28;20269;-71
2022/10/09 08:01:54;;;;;;;5.32;4.60;;;14.70;97.20;;;;;;1714165;28;20731;-71
2022/10/09 08:02:45;;;;;;;7.07;4.63;;;14.70;97.20;;;;;;1713985;28;20209;-71
2022/10/09 08:03:37;;;;;;;7.07;5.13;;;14.70;97.20;;;;;;1714106;28;20216;-71
2022/10/09 08:04:28;;;;;;;14.15;5.70;;;14.70;97.20;;;;;;1714028;28;20293;-71
2022/10/09 08:05:19;;;;;;;7.73;5.37;;;14.80;97.20;;;;;;1713959;28;20206;-71
2022/10/09 08:06:10;;;;;;;6.30;4.90;;;14.80;97.20;;;;;;1714109;28;20206;-71
2022/10/09 08:07:03;;;;;;;6.20;4.67;;;14.80;97.20;;;;;;1713996;28;20201;-71
2022/10/09 08:07:54;;;;;;;6.20;4.70;;;14.80;97.20;;;;;;1714029;28;20210;-71
2022/10/09 08:08:49;;;;;;;7.47;4.97;;;14.80;97.20;;;;;;1713986;28;20281;-71
2022/10/09 08:09:40;;;;;;;4.93;4.43;;;14.90;97.20;;;;;;1713967;28;20210;-71
2022/10/09 08:10:32;;;;;;;5.57;4.63;;;14.90;97.20;;;;;;1714032;28;20265;-71
2022/10/09 08:11:25;;;;;;;7.00;4.50;;;14.90;97.20;;;;;;1714074;28;20449;-71
2022/10/09 08:12:17;;;;;;;7.75;5.22;;;15.00;97.20;;;;;;1714038;28;20206;-71
2022/10/09 08:13:07;;;;;;;5.47;4.97;;;15.00;97.20;;;;;;1713958;28;20212;-71
2022/10/09 08:13:59;;;;;;;10.27;5.03;;;15.10;97.20;;;;;;1713756;28;20288;-71
2022/10/09 08:14:50;;;;;;;5.22;4.65;;;15.10;97.20;;;;;;1713934;28;20205;-71
2022/10/09 08:15:42;;;;;;;6.47;4.70;;;15.20;97.20;;;;;;1713937;28;20212;-71
2022/10/09 08:16:33;;;;;;;7.03;4.95;;;15.20;97.20;;;;;;1714004;28;20692;-71
2022/10/09 08:17:24;;;;;;;6.13;4.37;;;15.20;97.20;;;;;;1712107;28;20686;-71
2022/10/09 08:18:15;;;;;;;4.60;4.20;;;15.20;97.20;;;;;;1707353;29;20219;-71
2022/10/09 08:19:07;;;;;;;6.30;4.70;;;15.20;97.20;;;;;;1707381;29;20209;-71
2022/10/09 08:19:58;;;;;;;5.57;4.40;;;15.20;97.20;;;;;;1707264;29;20210;-71
2022/10/09 08:20:57;;;;;;;5.63;5.03;;;15.30;97.20;;;;;;1707203;29;20218;-71
2022/10/09 08:21:48;;;;;;;7.72;5.15;;;15.30;97.20;;;;;;1707414;29;20203;-71
2022/10/09 08:22:41;;;;;;;10.13;4.90;;;15.30;97.20;;;;;;1707268;29;20199;-71
2022/10/09 08:23:32;;;;;;;7.57;5.22;;;15.40;97.20;;;;;;1707327;29;20198;-71
2022/10/09 08:24:24;;;;;;;5.73;4.30;;;15.40;97.20;;;;;;1707051;29;20209;-71
2022/10/09 08:25:14;;;;;;;5.70;4.15;;;15.40;97.20;;;;;;1707284;29;20482;-71
2022/10/09 08:26:12;;;;;;;6.60;4.13;;;15.40;97.20;;;;;;1707286;29;20210;-71
2022/10/09 08:27:03;;;;;;;5.93;4.78;;;15.50;97.20;;;;;;1707311;28;20968;-71
2022/10/09 08:27:55;;;;;;;7.00;4.07;;;15.50;97.20;;;;;;1707385;29;20544;-71
2022/10/09 08:28:49;;;;;;;6.13;4.05;;;15.60;97.20;;;;;;1707364;29;20449;-71
2022/10/09 08:29:41;;;;;;;9.10;4.90;;;15.60;97.20;;;;;;1707264;29;20313;-71
2022/10/09 08:30:32;;;;;;;7.70;4.45;;;15.60;97.20;;;;;;1707128;29;20254;-71
2022/10/09 08:31:24;;;;;;;7.67;4.40;;;15.70;97.20;;;;;;1707281;29;20203;-71
2022/10/09 08:32:14;;;;;;;4.53;4.13;;;15.80;97.20;;;;;;1707304;29;20207;-71
2022/10/09 08:33:06;;;;;;;5.47;4.20;;;15.90;97.20;;;;;;1707276;29;20207;-71
2022/10/09 08:33:58;;;;;;;6.00;4.88;;;15.90;97.20;;;;;;1708039;28;20282;-71
2022/10/09 08:34:51;;;;;;;5.63;4.35;;;16.00;97.20;;;;;;1707241;29;20206;-71
2022/10/09 08:35:42;;;;;;;5.32;4.50;;;16.10;97.20;;;;;;1707227;29;20638;-71
2022/10/09 08:36:34;;;;;;;6.00;3.93;;;16.10;97.20;;;;;;1707355;29;20593;-70
2022/10/09 08:37:24;;;;;;;5.72;3.78;;;16.20;97.20;;;;;;1707154;29;20199;-70
2022/10/09 08:38:17;;;;;;;6.37;4.23;;;16.20;97.20;;;;;;1707293;28;20813;-70
2022/10/09 08:39:09;;;;;;;5.38;3.75;;;16.30;97.20;;;;;;1707236;29;20217;-71
2022/10/09 08:40:00;;;;;;;5.90;3.95;;;16.30;97.20;;;;;;1707244;29;20203;-70
2022/10/09 08:40:57;;;;;;;6.83;4.70;;;16.40;97.20;;;;;;1707139;28;20225;-70
2022/10/09 08:41:51;;;;;;;5.28;4.60;;;16.50;97.20;;;;;;1707298;29;20478;-71
2022/10/09 08:42:49;;;;;;;7.40;4.70;;;16.50;97.20;;;;;;1707233;29;20265;-70
2022/10/09 08:43:44;;;;;;;6.80;4.28;;;16.60;97.20;;;;;;1707006;28;20202;-70
2022/10/09 08:44:40;;;;;;;7.80;4.07;;;16.70;97.20;;;;;;1707295;29;20206;-70
2022/10/09 08:45:33;;;;;;;8.68;4.00;;;16.70;97.20;;;;;;1707274;29;20233;-71
2022/10/09 08:46:29;;;;;;;5.93;3.70;;;16.80;97.20;;;;;;1707297;29;20262;-70
2022/10/09 08:47:26;;;;;;;5.45;3.60;;;16.80;97.20;;;;;;1707243;29;20210;-71
2022/10/09 08:48:20;;;;;;;5.15;3.38;;;16.90;97.20;;;;;;1707325;29;20218;-71
2022/10/09 08:49:21;;;;;;;6.65;3.13;;;17.00;97.20;;;;;;1707182;28;20202;-71
2022/10/09 08:50:17;;;;;;;4.80;4.18;;;17.00;97.20;;;;;;1708326;28;20194;-71
2022/10/09 08:51:18;;;;;;;4.10;3.35;;;17.10;97.20;;;;;;1707300;29;20202;-71
2022/10/09 08:52:20;;;;;;;5.82;3.72;;;17.20;97.20;;;;;;1707268;29;20206;-71
2022/10/09 08:53:20;;;;;;;6.95;3.60;;;17.20;97.20;;;;;;1707249;29;20226;-71
2022/10/09 08:54:21;;;;;;;7.43;4.07;;;17.30;97.20;;;;;;1707070;29;20226;-71
2022/10/09 08:55:19;;;;;;;6.70;3.72;;;17.30;97.20;;;;;;1707191;29;20692;-71
2022/10/09 08:56:13;;;;;;;8.02;4.40;;;17.40;97.20;;;;;;1707246;29;20206;-71
2022/10/09 08:57:11;;;;;;;4.18;3.65;;;17.40;97.20;;;;;;1707111;29;20210;-71
2022/10/09 08:58:04;;;;;;;4.38;3.97;;;17.50;97.20;;;;;;1707227;29;20605;-71
2022/10/09 08:58:56;;;;;;;3.50;3.20;;;17.50;97.20;;;;;;1707272;29;20202;-71
2022/10/09 08:59:46;;;;;;;5.85;4.47;;;17.60;97.20;;;;;;1707151;29;20221;-71
2022/10/09 09:00:44;;;;;;;4.57;3.70;;;17.60;97.20;;;;;;1707136;29;20321;-71
2022/10/09 09:01:39;;;;;;;3.72;3.33;;;17.60;97.20;;;;;;1707110;29;20262;-71
2022/10/09 09:02:47;;;;;;;6.15;4.18;;;17.70;97.20;;;;;;1707173;28;20203;-71
2022/10/09 09:04:08;;;;;;;4.32;3.45;;;17.80;97.20;;;;;;1706895;29;20218;-71
2022/10/09 09:05:13;;;;;;;6.32;3.35;;;17.90;97.20;;;;;;1707179;29;20210;-71
2022/10/09 09:06:06;;;;;;;4.63;3.75;;;17.90;97.20;;;;;;1708234;28;20207;-71
2022/10/09 09:07:07;;;;;;;5.28;3.70;;;18.00;97.20;;;;;;1713758;28;20268;-71
2022/10/09 09:08:09;;;;;;;6.53;3.45;;;18.10;97.20;;;;;;1713834;28;20209;-71
2022/10/09 09:09:11;;;;;;;7.43;3.78;;;18.20;97.20;;;;;;1713855;28;20229;-71
2022/10/09 09:10:13;;;;;;;4.78;3.90;;;18.30;97.20;;;;;;1713865;28;20217;-71
2022/10/09 09:11:17;;;;;;;8.07;4.32;;;18.30;97.20;;;;;;1714655;28;20574;-71
2022/10/09 09:12:13;;;;;;;5.70;4.32;;;18.40;97.20;;;;;;1715096;28;20206;-71
2022/10/09 09:13:19;;;;;;;7.68;5.00;;;18.40;97.20;;;;;;1715196;28;20202;-71
2022/10/09 09:14:20;;;;;;;4.90;4.40;;;18.50;97.20;;;;;;1714852;28;20213;-71
2022/10/09 09:15:29;;;;;;;5.55;4.45;;;18.50;97.20;;;;;;1715144;28;20668;-71
2022/10/09 09:16:31;;;;;;;4.95;4.22;;;18.70;97.20;;;;;;1715187;28;20206;-71
2022/10/09 09:17:30;;;;;;;5.55;4.20;;;18.80;97.20;;;;;;1714969;28;20206;-71
2022/10/09 09:18:37;;;;;;;4.95;4.25;;;18.80;97.20;;;;;;1715039;28;20225;-72
2022/10/09 09:19:50;;;;;;;4.82;4.00;;;18.90;97.20;;;;;;1715097;28;20546;-70
2022/10/09 09:20:50;;;;;;;5.18;3.38;;;19.10;97.20;;;;;;1714982;28;20688;-71
2022/10/09 09:21:47;;;;;;;6.70;3.92;;;19.20;97.20;;;;;;1714989;28;20232;-71
2022/10/09 09:22:43;;;;;;;5.38;3.85;;;19.20;97.20;;;;;;1713423;28;20579;-71
2022/10/09 09:23:39;;;;;;;6.55;3.92;;;19.30;97.20;;;;;;1714690;28;20225;-71
2022/10/09 09:24:36;;;;;;;5.60;3.50;;;19.40;97.20;;;;;;1715076;28;20213;-71
2022/10/09 09:25:35;;;;;;;6.72;3.65;;;19.50;97.20;;;;;;1714937;28;20202;-71
2022/10/09 09:26:26;;;;;;;4.25;3.70;;;19.60;97.20;;;;;;1715062;28;20723;-71
2022/10/09 09:27:20;;;;;;;5.37;3.87;;;19.70;97.20;;;;;;1714970;28;20680;-71
2022/10/09 09:28:15;;;;;;;4.57;3.47;;;19.80;97.20;;;;;;1714900;28;20456;-71
2022/10/09 09:29:07;;;;;;;5.93;3.40;;;19.90;97.20;;;;;;1715012;28;20625;-71
2022/10/09 09:30:03;;;;;;;4.68;3.60;;;20.00;97.20;;;;;;1714902;28;20233;-71
2022/10/09 09:30:58;;;;;;;5.00;4.47;;;20.00;97.20;;;;;;1714994;28;20234;-72
2022/10/09 09:31:52;;;;;;;8.38;4.13;;;20.10;97.20;;;;;;1715060;28;20404;-71
2022/10/09 09:32:56;;;;;;;3.90;3.30;;;20.20;97.20;;;;;;1714842;28;20237;-71
2022/10/09 09:33:54;;;;;;;3.75;3.35;;;20.30;97.20;;;;;;1714713;28;20198;-71
2022/10/09 09:34:45;;;;;;;7.68;3.25;;;20.40;97.20;;;;;;1714953;28;20260;-71
2022/10/09 09:35:45;;;;;;;5.93;3.80;;;20.50;97.20;;;;;;1714959;28;20210;-71